Time;durP1;ratioP1;P1;durP2;ratioP2;P2;SDS_P1;SDS_P2;PMS_P1;PMS_P2;Temp;Humidity;BMP_temperature;BMP_pressure;BME280_temperature;BME280_humidity;BME280_pressure;Samples;Min_cycle;Max_cycle;Signal;HPM_P1;HPM_P2
2022/08/02 00:00:51;;;;;;;;;;;21.00;78.70;;;;;;1982093;28;19906;-73
2022/08/02 00:01:49;;;;;;;;;;;21.00;78.60;;;;;;1982326;29;19906;-73
2022/08/02 00:02:48;;;;;;;;;;;21.00;78.90;;;;;;1982785;29;20337;-72
2022/08/02 00:03:48;;;;;;;;;;;21.00;79.20;;;;;;1982747;28;19949;-72
2022/08/02 00:04:46;;;;;;;;;;;20.90;78.90;;;;;;1982735;28;20379;-72
2022/08/02 00:05:45;;;;;;;;;;;21.00;79.40;;;;;;1982730;28;19913;-73
2022/08/02 00:06:43;;;;;;;;;;;21.00;79.30;;;;;;1982643;28;19911;-73
2022/08/02 00:07:42;;;;;;;;;;;21.00;79.60;;;;;;1982066;29;19921;-73
2022/08/02 00:08:40;;;;;;;;;;;21.00;80.00;;;;;;1982154;29;19914;-73
2022/08/02 00:09:39;;;;;;;;;;;20.90;80.00;;;;;;1982775;29;20282;-74
2022/08/02 00:10:37;;;;;;;;;;;21.00;80.20;;;;;;1982689;28;19910;-74
2022/08/02 00:11:36;;;;;;;;;;;21.00;80.10;;;;;;1982967;28;19907;-73
2022/08/02 00:12:34;;;;;;;;;;;21.00;80.20;;;;;;1982616;28;20347;-73
2022/08/02 00:13:33;;;;;;;;;;;20.90;80.30;;;;;;1982740;28;19910;-74
2022/08/02 00:14:31;;;;;;;;;;;21.00;80.50;;;;;;1982701;28;19912;-74
2022/08/02 00:15:30;;;;;;;;;;;20.90;80.60;;;;;;1981819;29;19918;-74
2022/08/02 00:16:28;;;;;;;;;;;20.90;80.70;;;;;;1982154;29;19929;-74
2022/08/02 00:17:27;;;;;;;;;;;21.00;81.00;;;;;;1982659;29;19945;-73
2022/08/02 00:18:25;;;;;;;;;;;20.90;80.90;;;;;;1982762;28;20274;-73
2022/08/02 00:19:24;;;;;;;;;;;21.00;81.10;;;;;;1982622;28;20049;-73
2022/08/02 00:20:22;;;;;;;;;;;20.90;81.20;;;;;;1982625;28;20025;-74
2022/08/02 00:21:21;;;;;;;;;;;21.00;81.40;;;;;;1989850;28;19912;-74
2022/08/02 00:22:19;;;;;;;;;;;21.00;81.50;;;;;;1989814;28;19958;-73
2022/08/02 00:23:18;;;;;;;;;;;21.00;81.70;;;;;;1983227;28;20315;-74
2022/08/02 00:24:16;;;;;;;;;;;20.90;81.60;;;;;;1982644;28;20347;-73
2022/08/02 00:25:15;;;;;;;;;;;20.90;81.60;;;;;;1982885;28;19906;-73
2022/08/02 00:26:13;;;;;;;;;;;20.90;81.70;;;;;;1982625;28;19910;-74
2022/08/02 00:27:13;;;;;;;;;;;20.90;81.80;;;;;;1982574;28;20005;-74
2022/08/02 00:28:12;;;;;;;;;;;20.90;82.10;;;;;;1982611;28;19906;-73
2022/08/02 00:29:10;;;;;;;;;;;20.90;82.20;;;;;;1982559;28;20278;-73
2022/08/02 00:30:09;;;;;;;;;;;21.00;82.40;;;;;;1982573;28;19910;-72
2022/08/02 00:31:08;;;;;;;;;;;20.90;82.40;;;;;;1982554;28;19906;-72
2022/08/02 00:32:06;;;;;;;;;;;20.90;82.80;;;;;;1982464;28;19945;-73
2022/08/02 00:33:05;;;;;;;;;;;20.90;83.00;;;;;;1982611;28;20482;-72
2022/08/02 00:34:05;;;;;;;;;;;20.90;83.10;;;;;;1982622;28;19915;-72
2022/08/02 00:35:03;;;;;;;;;;;20.90;83.30;;;;;;1982502;28;19910;-72
2022/08/02 00:36:02;;;;;;;;;;;20.90;83.50;;;;;;1982620;28;19968;-72
2022/08/02 00:37:01;;;;;;;;;;;20.90;83.60;;;;;;1982574;28;19906;-73
2022/08/02 00:37:59;;;;;;;;;;;20.90;83.80;;;;;;1982694;28;19957;-73
2022/08/02 00:38:58;;;;;;;;;;;20.90;83.60;;;;;;1989543;28;20449;-73
2022/08/02 00:39:56;;;;;;;;;;;21.00;84.10;;;;;;1989648;28;19913;-73
2022/08/02 00:40:56;;;;;;;;;;;20.90;84.80;;;;;;1981858;28;19913;-73
2022/08/02 00:41:55;;;;;;;;;;;20.90;84.90;;;;;;1982053;29;19930;-73
2022/08/02 00:43:05;;;;;;;;;;;21.00;85.40;;;;;;1982586;29;20266;-73
2022/08/02 00:44:04;;;;;;;;;;;20.90;86.10;;;;;;1982589;28;19910;-73
2022/08/02 00:45:02;;;;;;;;;;;20.90;86.00;;;;;;1982507;28;19906;-74
2022/08/02 00:46:01;;;;;;;;;;;20.90;86.90;;;;;;1982428;28;19906;-72
2022/08/02 00:47:00;;;;;;;;;;;20.90;87.70;;;;;;1989510;28;20374;-73
2022/08/02 00:47:58;;;;;;;;;;;20.90;87.90;;;;;;1989611;28;19906;-73
2022/08/02 00:48:57;;;;;;;;;;;20.90;86.20;;;;;;1982845;28;19911;-73
2022/08/02 00:49:55;;;;;;;;;;;20.90;85.80;;;;;;1982435;28;19907;-73
2022/08/02 00:50:55;;;;;;;;;;;20.90;86.30;;;;;;1982477;28;19907;-74
2022/08/02 00:51:55;;;;;;;;;;;20.90;86.10;;;;;;1982424;28;19942;-72
2022/08/02 00:52:53;;;;;;;;;;;20.90;86.20;;;;;;1982343;28;19958;-73
2022/08/02 00:53:52;;;;;;;;;;;20.90;86.20;;;;;;1982428;28;19914;-72
2022/08/02 00:54:50;;;;;;;;;;;20.90;86.60;;;;;;1982406;28;19913;-72
2022/08/02 00:55:49;;;;;;;;;;;20.90;85.70;;;;;;1982370;28;19913;-72
2022/08/02 00:56:47;;;;;;;;;;;20.90;85.80;;;;;;1982377;28;19907;-73
2022/08/02 00:57:46;;;;;;;;;;;20.90;85.20;;;;;;1982384;28;19907;-73
2022/08/02 00:58:44;;;;;;;;;;;20.90;85.10;;;;;;1982425;28;20047;-73
2022/08/02 00:59:43;;;;;;;;;;;20.90;84.60;;;;;;1982270;28;20421;-73
2022/08/02 01:00:41;;;;;;;;;;;20.90;84.50;;;;;;1981771;28;19911;-73
2022/08/02 01:01:40;;;;;;;;;;;20.90;85.20;;;;;;1981927;29;19953;-73
2022/08/02 01:02:39;;;;;;;;;;;20.90;85.40;;;;;;1982480;29;19906;-73
2022/08/02 01:03:38;;;;;;;;;;;20.90;85.80;;;;;;1982327;28;20345;-72
2022/08/02 01:04:36;;;;;;;;;;;20.90;85.80;;;;;;1982325;28;20323;-72
2022/08/02 01:05:34;;;;;;;;;;;20.90;86.00;;;;;;1982516;28;19914;-72
2022/08/02 01:06:33;;;;;;;;;;;20.90;86.10;;;;;;1982410;28;19911;-72
2022/08/02 01:07:32;;;;;;;;;;;20.90;86.10;;;;;;1982386;28;19953;-73
2022/08/02 01:08:30;;;;;;;;;;;20.90;86.20;;;;;;1989395;28;19906;-73
2022/08/02 01:09:29;;;;;;;;;;;20.90;86.40;;;;;;1989527;28;19913;-73
2022/08/02 01:10:27;;;;;;;;;;;20.90;86.40;;;;;;1982737;28;19906;-72
2022/08/02 01:11:26;;;;;;;;;;;20.90;86.40;;;;;;1982393;28;20009;-73
2022/08/02 01:12:28;;;;;;;;;;;20.90;86.50;;;;;;1989240;28;19996;-73
2022/08/02 01:13:27;;;;;;;;;;;20.90;86.40;;;;;;1989407;28;19906;-73
2022/08/02 01:14:25;;;;;;;;;;;20.90;86.80;;;;;;1982435;28;19911;-73
2022/08/02 01:15:24;;;;;;;;;;;20.90;87.00;;;;;;1988331;28;19918;-73
2022/08/02 01:16:25;;;;;;;;;;;20.90;87.00;;;;;;1989969;28;19906;-73
2022/08/02 01:17:26;;;;;;;;;;;20.90;87.30;;;;;;1989940;28;19992;-73
2022/08/02 01:18:30;;;;;;;;;;;20.90;87.40;;;;;;1989293;28;19952;-73
2022/08/02 01:19:38;;;;;;;;;;;20.90;87.40;;;;;;1989515;28;20005;-73
2022/08/02 01:20:48;;;;;;;;;;;20.90;87.50;;;;;;1989856;28;19968;-75
2022/08/02 01:22:20;;;;;;;;;;;20.90;87.30;;;;;;1989910;28;19913;-72
2022/08/02 01:23:24;;;;;;;;;;;20.80;87.50;;;;;;1958708;29;19948;-73
2022/08/02 01:24:30;;;;;;;;;;;20.90;87.30;;;;;;1981930;28;19910;-73
2022/08/02 01:25:41;;;;;;;;;;;20.80;87.40;;;;;;1989991;28;20346;-73
2022/08/02 01:26:42;;;;;;;;;;;20.90;87.50;;;;;;1989893;28;19906;-73
2022/08/02 01:28:01;;;;;;;;;;;20.90;87.10;;;;;;1990023;28;20246;-73
2022/08/02 01:29:13;;;;;;;;;;;20.90;86.90;;;;;;1990001;28;20349;-72
2022/08/02 01:30:12;;;;;;;;;;;20.80;86.80;;;;;;1990048;28;19957;-73
2022/08/02 01:31:17;;;;;;;;;;;20.80;87.30;;;;;;1989196;28;19906;-72
2022/08/02 01:32:24;;;;;;;;;;;20.90;87.50;;;;;;1989341;28;19914;-74
2022/08/02 01:33:24;;;;;;;;;;;20.80;87.60;;;;;;1989221;28;19914;-73
2022/08/02 01:34:28;;;;;;;;;;;20.80;87.80;;;;;;1989294;28;19956;-73
2022/08/02 01:35:32;;;;;;;;;;;20.80;87.90;;;;;;1989885;28;19906;-74
2022/08/02 01:36:37;;;;;;;;;;;20.80;88.20;;;;;;1989962;28;20393;-72
2022/08/02 01:37:44;;;;;;;;;;;20.80;88.40;;;;;;1981389;29;19993;-72
2022/08/02 01:38:45;;;;;;;;;;;20.80;88.30;;;;;;1974281;29;20010;-73
2022/08/02 01:39:44;;;;;;;;;;;20.80;88.50;;;;;;1981559;29;19942;-72
2022/08/02 01:40:43;;;;;;;;;;;20.80;88.40;;;;;;1989825;28;19916;-73
2022/08/02 01:41:42;;;;;;;;;;;20.80;88.40;;;;;;1989783;28;19906;-73
2022/08/02 01:42:44;;;;;;;;;;;20.80;88.20;;;;;;1989771;28;19914;-73
2022/08/02 01:43:43;;;;;;;;;;;20.80;88.30;;;;;;1989840;28;19960;-73
2022/08/02 01:44:42;;;;;;;;;;;20.80;88.30;;;;;;1989797;28;19906;-72
2022/08/02 01:45:41;;;;;;;;;;;20.90;88.40;;;;;;1989819;28;19941;-73
2022/08/02 01:46:40;;;;;;;;;;;20.80;88.30;;;;;;1989932;28;20349;-72
2022/08/02 01:47:40;;;;;;;;;;;20.90;88.60;;;;;;1989868;28;19906;-72
2022/08/02 01:48:39;;;;;;;;;;;20.80;88.60;;;;;;1989882;28;20381;-73
2022/08/02 01:49:38;;;;;;;;;;;20.80;88.50;;;;;;1989814;28;19909;-73
2022/08/02 01:50:38;;;;;;;;;;;20.80;88.70;;;;;;1989888;28;19906;-73
2022/08/02 01:52:56;;;;;;;;;;;20.80;88.90;;;;;;1989768;28;19910;-73
2022/08/02 01:53:55;;;;;;;;;;;20.80;89.00;;;;;;1989654;28;19906;-72
2022/08/02 01:54:54;;;;;;;;;;;20.80;89.00;;;;;;1989706;28;19945;-73
2022/08/02 01:55:53;;;;;;;;;;;20.80;89.00;;;;;;1989025;28;19907;-73
2022/08/02 01:56:53;;;;;;;;;;;20.80;89.10;;;;;;1989062;28;19913;-73
2022/08/02 01:57:53;;;;;;;;;;;20.80;89.20;;;;;;1989745;28;19910;-73
2022/08/02 01:58:53;;;;;;;;;;;20.80;89.20;;;;;;1981281;29;20089;-73
2022/08/02 01:59:54;;;;;;;;;;;20.80;89.20;;;;;;1981382;29;20434;-73
2022/08/02 02:00:55;;;;;;;;;;;20.80;89.10;;;;;;1988938;28;19909;-73
2022/08/02 02:01:54;;;;;;;;;;;20.80;89.50;;;;;;1981571;29;20307;-73
2022/08/02 02:02:54;;;;;;;;;;;20.80;89.80;;;;;;1981356;29;19907;-73
2022/08/02 02:03:52;;;;;;;;;;;20.80;89.70;;;;;;1989315;28;19913;-73
2022/08/02 02:04:53;;;;;;;;;;;20.80;89.80;;;;;;1989658;28;19905;-73
2022/08/02 02:05:54;;;;;;;;;;;20.80;90.00;;;;;;1989625;28;19918;-73
2022/08/02 02:06:54;;;;;;;;;;;20.80;89.70;;;;;;1988978;28;20365;-73
2022/08/02 02:07:54;;;;;;;;;;;20.80;90.30;;;;;;1981207;29;19911;-73
2022/08/02 02:08:53;;;;;;;;;;;20.80;90.10;;;;;;1981186;28;19956;-72
2022/08/02 02:09:53;;;;;;;;;;;20.80;90.00;;;;;;1988218;28;20318;-73
2022/08/02 02:10:52;;;;;;;;;;;20.80;90.00;;;;;;1981163;28;19980;-72
2022/08/02 02:11:51;;;;;;;;;;;20.80;89.80;;;;;;1981328;29;19929;-73
2022/08/02 02:12:52;;;;;;;;;;;20.80;89.70;;;;;;1989089;28;19977;-74
2022/08/02 02:13:51;;;;;;;;;;;20.70;89.30;;;;;;1981166;29;19914;-72
2022/08/02 02:14:50;;;;;;;;;;;20.80;89.10;;;;;;1981171;29;19913;-74
2022/08/02 02:15:49;;;;;;;;;;;20.80;89.20;;;;;;1989094;28;19910;-73
2022/08/02 02:16:48;;;;;;;;;;;20.80;88.90;;;;;;1989620;28;19910;-72
2022/08/02 02:17:48;;;;;;;;;;;20.80;89.10;;;;;;1989623;28;19956;-72
2022/08/02 02:18:47;;;;;;;;;;;20.80;89.20;;;;;;1989435;28;20053;-73
2022/08/02 02:19:46;;;;;;;;;;;20.80;89.00;;;;;;1989462;28;19965;-74
2022/08/02 02:20:45;;;;;;;;;;;20.80;89.00;;;;;;1989308;28;19906;-73
2022/08/02 02:21:43;;;;;;;;;;;20.80;89.10;;;;;;1989428;28;19917;-73
2022/08/02 02:22:42;;;;;;;;;;;20.70;88.80;;;;;;1989549;28;20251;-72
2022/08/02 02:23:42;;;;;;;;;;;20.80;89.10;;;;;;1989447;28;19988;-74
2022/08/02 02:24:40;;;;;;;;;;;20.80;89.30;;;;;;1989555;28;19960;-73
2022/08/02 02:25:40;;;;;;;;;;;20.80;89.40;;;;;;1988786;28;19914;-74
2022/08/02 02:26:41;;;;;;;;;;;20.80;89.50;;;;;;1988861;28;19910;-74
2022/08/02 02:27:45;;;;;;;;;;;20.70;89.40;;;;;;1989455;28;19906;-73
2022/08/02 02:28:45;;;;;;;;;;;20.70;89.60;;;;;;1981038;29;19911;-73
2022/08/02 02:29:45;;;;;;;;;;;20.70;89.70;;;;;;1981154;29;19910;-74
2022/08/02 02:30:47;;;;;;;;;;;20.70;89.70;;;;;;1989333;28;19910;-73
2022/08/02 02:31:47;;;;;;;;;;;20.70;90.00;;;;;;1989342;28;20412;-73
2022/08/02 02:32:47;;;;;;;;;;;20.70;90.00;;;;;;1989359;28;20456;-73
2022/08/02 02:33:49;;;;;;;;;;;20.70;89.90;;;;;;1989360;28;19905;-73
2022/08/02 02:34:50;;;;;;;;;;;20.70;90.00;;;;;;1989492;28;19906;-73
2022/08/02 02:35:50;;;;;;;;;;;20.70;90.10;;;;;;1989462;28;19913;-73
2022/08/02 02:36:49;;;;;;;;;;;20.80;90.20;;;;;;1989388;28;19906;-73
2022/08/02 02:37:48;;;;;;;;;;;20.80;90.20;;;;;;1989355;28;19969;-73
2022/08/02 02:38:49;;;;;;;;;;;20.70;90.10;;;;;;1989364;28;19906;-73
2022/08/02 02:39:49;;;;;;;;;;;20.80;90.20;;;;;;1989376;28;19913;-73
2022/08/02 02:40:48;;;;;;;;;;;20.70;90.20;;;;;;1989263;28;20302;-73
2022/08/02 02:41:48;;;;;;;;;;;20.80;90.30;;;;;;1989365;28;19906;-73
2022/08/02 02:42:47;;;;;;;;;;;20.80;90.30;;;;;;1989353;28;20318;-73
2022/08/02 02:43:46;;;;;;;;;;;20.70;90.30;;;;;;1989517;28;20366;-72
2022/08/02 02:44:46;;;;;;;;;;;20.80;90.50;;;;;;1989324;28;19956;-73
2022/08/02 02:45:44;;;;;;;;;;;20.80;90.60;;;;;;1989254;28;19945;-72
2022/08/02 02:46:43;;;;;;;;;;;20.70;90.60;;;;;;1989514;28;19910;-73
2022/08/02 02:47:42;;;;;;;;;;;20.70;90.60;;;;;;1989433;28;19950;-73
2022/08/02 02:48:41;;;;;;;;;;;20.70;90.70;;;;;;1989342;28;19906;-73
2022/08/02 02:49:42;;;;;;;;;;;20.70;90.70;;;;;;1989321;28;19906;-72
2022/08/02 02:50:42;;;;;;;;;;;20.70;90.60;;;;;;1980900;28;19925;-73
2022/08/02 02:51:43;;;;;;;;;;;20.70;90.80;;;;;;1981168;29;19934;-73
2022/08/02 02:52:41;;;;;;;;;;;20.70;90.70;;;;;;1980829;28;19914;-73
2022/08/02 02:53:41;;;;;;;;;;;20.70;90.80;;;;;;1981008;29;19906;-72
2022/08/02 02:54:40;;;;;;;;;;;20.70;90.80;;;;;;1988966;28;19906;-73
2022/08/02 02:55:40;;;;;;;;;;;20.70;90.70;;;;;;1989315;28;19906;-72
2022/08/02 02:56:39;;;;;;;;;;;20.70;90.80;;;;;;1988319;28;19913;-73
2022/08/02 02:57:38;;;;;;;;;;;20.80;91.00;;;;;;1994807;28;19917;-73
2022/08/02 02:58:37;;;;;;;;;;;20.70;91.10;;;;;;1990629;28;20012;-73
2022/08/02 02:59:37;;;;;;;;;;;20.70;91.40;;;;;;1993739;28;19905;-73
2022/08/02 03:01:53;;;;;;;;;;;20.70;91.80;;;;;;1991893;28;19914;-74
2022/08/02 03:02:52;;;;;;;;;;;20.70;90.50;;;;;;1994233;28;19953;-73
2022/08/02 03:03:51;;;;;;;;;;;20.70;90.40;;;;;;1994307;28;19991;-74
2022/08/02 03:04:50;;;;;;;;;;;20.70;90.40;;;;;;1991947;28;19968;-74
2022/08/02 03:05:49;;;;;;;;;;;20.70;90.50;;;;;;1993933;28;19913;-74
2022/08/02 03:06:49;;;;;;;;;;;20.70;90.60;;;;;;1992115;28;19959;-74
2022/08/02 03:07:47;;;;;;;;;;;20.70;90.60;;;;;;1993810;28;20310;-72
2022/08/02 03:08:46;;;;;;;;;;;20.70;90.70;;;;;;1999543;28;19912;-75
2022/08/02 03:09:44;;;;;;;;;;;20.70;90.70;;;;;;2000495;28;20312;-73
2022/08/02 03:10:43;;;;;;;;;;;20.70;90.80;;;;;;1993131;28;20461;-73
2022/08/02 03:11:42;;;;;;;;;;;20.70;90.80;;;;;;1983293;28;19965;-72
2022/08/02 03:12:41;;;;;;;;;;;20.70;91.00;;;;;;1984502;28;19911;-73
2022/08/02 03:13:40;;;;;;;;;;;20.70;91.20;;;;;;1992628;28;19906;-73
2022/08/02 03:14:40;;;;;;;;;;;20.70;91.20;;;;;;1992463;28;19912;-72
2022/08/02 03:15:38;;;;;;;;;;;20.70;91.30;;;;;;1993251;28;19925;-73
2022/08/02 03:16:41;;;;;;;;;;;20.70;91.30;;;;;;1992375;28;19910;-73
2022/08/02 03:17:43;;;;;;;;;;;20.60;91.50;;;;;;1992611;28;19984;-72
2022/08/02 03:18:42;;;;;;;;;;;20.70;91.90;;;;;;2004235;28;20360;-73
2022/08/02 03:19:43;;;;;;;;;;;20.60;91.90;;;;;;2004295;28;19905;-72
2022/08/02 03:20:41;;;;;;;;;;;20.60;92.10;;;;;;1996888;28;19913;-74
2022/08/02 03:21:41;;;;;;;;;;;20.60;91.40;;;;;;1997556;28;19906;-74
2022/08/02 03:22:40;;;;;;;;;;;20.60;90.20;;;;;;1998648;28;19918;-74
2022/08/02 03:23:42;;;;;;;;;;;20.70;90.30;;;;;;1998606;28;19906;-73
2022/08/02 03:24:40;;;;;;;;;;;20.60;90.30;;;;;;1998741;28;19945;-73
2022/08/02 03:25:39;;;;;;;;;;;20.60;90.50;;;;;;1998695;28;19905;-73
2022/08/02 03:26:38;;;;;;;;;;;20.60;90.60;;;;;;2005623;28;19909;-73
2022/08/02 03:27:36;;;;;;;;;;;20.70;90.70;;;;;;2005952;28;20248;-73
2022/08/02 03:28:35;;;;;;;;;;;20.60;90.70;;;;;;1998916;28;19905;-73
2022/08/02 03:29:33;;;;;;;;;;;20.60;91.00;;;;;;1998478;28;19959;-74
2022/08/02 03:30:32;;;;;;;;;;;20.70;90.90;;;;;;1998402;28;19905;-74
2022/08/02 03:31:30;;;;;;;;;;;20.70;90.90;;;;;;1998586;28;19906;-74
2022/08/02 03:32:29;;;;;;;;;;;20.70;91.00;;;;;;1998421;28;20065;-72
2022/08/02 03:33:29;;;;;;;;;;;20.60;91.00;;;;;;1998511;28;20253;-73
2022/08/02 03:34:27;;;;;;;;;;;20.60;91.10;;;;;;1998421;28;19905;-73
2022/08/02 03:35:27;;;;;;;;;;;20.60;91.40;;;;;;1998688;28;19906;-73
2022/08/02 03:36:27;;;;;;;;;;;20.60;91.50;;;;;;1998496;28;19929;-73
2022/08/02 03:37:26;;;;;;;;;;;20.70;91.50;;;;;;1989927;28;20305;-73
2022/08/02 03:38:25;;;;;;;;;;;20.60;91.40;;;;;;1990125;28;19910;-72
2022/08/02 03:39:24;;;;;;;;;;;20.60;90.90;;;;;;1998159;28;19910;-73
2022/08/02 03:40:24;;;;;;;;;;;20.60;90.90;;;;;;2005581;28;19905;-74
2022/08/02 03:41:22;;;;;;;;;;;20.70;91.10;;;;;;2005839;28;20132;-74
2022/08/02 03:42:21;;;;;;;;;;;20.60;91.10;;;;;;1998785;28;20116;-72
2022/08/02 03:43:20;;;;;;;;;;;20.70;91.30;;;;;;1989884;28;19906;-73
2022/08/02 03:44:19;;;;;;;;;;;20.60;91.30;;;;;;1990053;28;19945;-73
2022/08/02 03:45:18;;;;;;;;;;;20.60;91.40;;;;;;1997939;28;19905;-72
2022/08/02 03:46:18;;;;;;;;;;;20.70;91.70;;;;;;1998385;28;20368;-73
2022/08/02 03:47:17;;;;;;;;;;;20.60;91.70;;;;;;1989997;28;20282;-73
2022/08/02 03:48:16;;;;;;;;;;;20.70;91.90;;;;;;1990137;28;20276;-73
2022/08/02 03:49:15;;;;;;;;;;;20.60;92.40;;;;;;1997964;28;19913;-74
2022/08/02 03:50:13;;;;;;;;;;;20.60;92.20;;;;;;1998547;28;19917;-74
2022/08/02 03:51:12;;;;;;;;;;;20.60;90.90;;;;;;1998421;28;19906;-73
2022/08/02 03:52:12;;;;;;;;;;;20.70;91.10;;;;;;1998387;28;19909;-74
2022/08/02 03:53:11;;;;;;;;;;;20.60;91.20;;;;;;1998355;28;20364;-73
2022/08/02 03:54:10;;;;;;;;;;;20.60;91.40;;;;;;1998408;28;19906;-72
2022/08/02 03:55:10;;;;;;;;;;;20.70;91.60;;;;;;1998417;28;19948;-71
2022/08/02 03:56:09;;;;;;;;;;;20.70;91.70;;;;;;1998461;28;20044;-73
2022/08/02 03:57:08;;;;;;;;;;;20.60;91.70;;;;;;1998378;28;19905;-73
2022/08/02 03:58:07;;;;;;;;;;;20.60;91.90;;;;;;1998365;28;19906;-74
2022/08/02 03:59:09;;;;;;;;;;;20.60;92.20;;;;;;1998365;28;19992;-73
2022/08/02 04:00:09;;;;;;;;;;;20.70;92.40;;;;;;1998618;28;19906;-74
2022/08/02 04:01:07;;;;;;;;;;;20.60;92.60;;;;;;1998151;28;19914;-74
2022/08/02 04:02:06;;;;;;;;;;;20.60;92.70;;;;;;1998342;28;19906;-73
2022/08/02 04:03:06;;;;;;;;;;;20.60;92.80;;;;;;1998329;28;19912;-73
2022/08/02 04:04:07;;;;;;;;;;;20.70;93.90;;;;;;1998465;28;20357;-73
2022/08/02 04:05:05;;;;;;;;;;;20.70;93.80;;;;;;1998233;28;19912;-72
2022/08/02 04:06:04;;;;;;;;;;;20.60;91.20;;;;;;1998397;28;19921;-74
2022/08/02 04:07:03;;;;;;;;;;;20.60;87.80;;;;;;1998271;28;19929;-75
2022/08/02 04:08:01;;;;;;;;;;;20.60;84.20;;;;;;1998392;28;20250;-73
2022/08/02 04:09:03;;;;;;;;;;;20.60;84.20;;;;;;1998286;28;19913;-73
2022/08/02 04:10:02;;;;;;;;;;;20.70;84.10;;;;;;1997538;28;20034;-73
2022/08/02 04:12:23;;;;;;;;;;;20.60;83.80;;;;;;1998270;28;19909;-73
2022/08/02 04:13:24;;;;;;;;;;;20.60;83.80;;;;;;1998606;28;19933;-73
2022/08/02 04:14:23;;;;;;;;;;;20.60;84.00;;;;;;1998109;28;19941;-73
2022/08/02 04:15:22;;;;;;;;;;;20.70;84.00;;;;;;1997975;28;20297;-73
2022/08/02 04:16:22;;;;;;;;;;;20.60;83.80;;;;;;1998160;28;19906;-73
2022/08/02 04:17:22;;;;;;;;;;;20.70;83.80;;;;;;1998209;28;19912;-72
2022/08/02 04:18:24;;;;;;;;;;;20.70;83.90;;;;;;1998182;28;19913;-73
2022/08/02 04:19:28;;;;;;;;;;;20.60;83.80;;;;;;1998188;28;20369;-72
2022/08/02 04:20:28;;;;;;;;;;;20.60;83.80;;;;;;1998077;28;19928;-72
2022/08/02 04:21:29;;;;;;;;;;;20.60;83.80;;;;;;1998241;28;19906;-72
2022/08/02 04:22:34;;;;;;;;;;;20.60;83.90;;;;;;1998128;28;19905;-72
2022/08/02 04:23:33;;;;;;;;;;;20.60;83.90;;;;;;1998495;28;19906;-73
2022/08/02 04:24:34;;;;;;;;;;;20.60;83.70;;;;;;1998272;28;19941;-72
2022/08/02 04:25:34;;;;;;;;;;;20.60;83.70;;;;;;1998103;28;19912;-73
2022/08/02 04:26:33;;;;;;;;;;;20.60;83.90;;;;;;2005389;28;20060;-73
2022/08/02 04:27:35;;;;;;;;;;;20.60;83.90;;;;;;2005379;28;19909;-73
2022/08/02 04:28:34;;;;;;;;;;;20.60;84.00;;;;;;1998113;28;19914;-73
2022/08/02 04:29:33;;;;;;;;;;;20.60;84.10;;;;;;1998175;28;20333;-72
2022/08/02 04:30:32;;;;;;;;;;;20.60;84.10;;;;;;1997995;28;19913;-73
2022/08/02 04:31:31;;;;;;;;;;;20.60;83.90;;;;;;1998168;28;20361;-75
2022/08/02 04:32:31;;;;;;;;;;;20.60;83.80;;;;;;1997542;28;20024;-72
2022/08/02 04:33:30;;;;;;;;;;;20.60;83.80;;;;;;1998202;28;20349;-73
2022/08/02 04:34:29;;;;;;;;;;;20.70;83.80;;;;;;1998089;28;19992;-74
2022/08/02 04:35:28;;;;;;;;;;;20.60;83.80;;;;;;1998066;28;19910;-73
2022/08/02 04:36:27;;;;;;;;;;;20.60;83.90;;;;;;1998118;28;19910;-73
2022/08/02 04:37:25;;;;;;;;;;;20.60;83.70;;;;;;1998301;28;20274;-73
2022/08/02 04:38:24;;;;;;;;;;;20.60;83.60;;;;;;1998060;28;20276;-73
2022/08/02 04:39:23;;;;;;;;;;;20.60;83.80;;;;;;1998194;28;19912;-73
2022/08/02 04:40:21;;;;;;;;;;;20.60;83.80;;;;;;1998221;28;19906;-73
2022/08/02 04:41:19;;;;;;;;;;;20.60;83.60;;;;;;1998390;28;20357;-73
2022/08/02 04:42:22;;;;;;;;;;;20.60;83.60;;;;;;1998416;28;19909;-73
2022/08/02 04:43:21;;;;;;;;;;;20.60;83.60;;;;;;1998516;28;20353;-72
2022/08/02 04:44:19;;;;;;;;;;;20.60;83.60;;;;;;1999463;28;19992;-73
2022/08/02 04:45:18;;;;;;;;;;;20.60;83.60;;;;;;2006485;28;19982;-73
2022/08/02 04:46:17;;;;;;;;;;;20.60;83.60;;;;;;2007604;28;19894;-72
2022/08/02 04:47:15;;;;;;;;;;;20.60;83.60;;;;;;2007502;28;19921;-72
2022/08/02 04:48:14;;;;;;;;;;;20.60;83.70;;;;;;2007610;28;19981;-72
2022/08/02 04:49:14;;;;;;;;;;;20.60;83.70;;;;;;1999392;28;19905;-72
2022/08/02 04:50:12;;;;;;;;;;;20.60;83.80;;;;;;1998135;28;19910;-73
2022/08/02 04:51:11;;;;;;;;;;;20.60;84.50;;;;;;1998104;28;19905;-73
2022/08/02 04:52:09;;;;;;;;;;;20.60;83.70;;;;;;2005258;28;19910;-72
2022/08/02 04:53:08;;;;;;;;;;;20.60;83.60;;;;;;1997341;28;20318;-74
2022/08/02 04:54:08;;;;;;;;;;;20.60;83.70;;;;;;1990157;28;19950;-72
2022/08/02 04:55:06;;;;;;;;;;;20.60;83.70;;;;;;1997834;28;20337;-72
2022/08/02 04:56:05;;;;;;;;;;;20.60;83.70;;;;;;1998004;28;19906;-73
2022/08/02 04:57:53;;;;;;;;;;;20.60;83.70;;;;;;1997987;28;19917;-73
2022/08/02 04:58:22;;;;;;;;;;;20.60;83.60;;;;;;1997694;28;20326;-73
2022/08/02 04:59:21;;;;;;;;;;;20.60;83.50;;;;;;1997960;28;19976;-73
2022/08/02 05:00:20;;;;;;;;;;;20.60;83.60;;;;;;1998082;28;19906;-73
2022/08/02 05:01:20;;;;;;;;;;;20.60;83.60;;;;;;2005390;28;19913;-73
2022/08/02 05:02:18;;;;;;;;;;;20.60;83.80;;;;;;2004940;28;19905;-73
2022/08/02 05:03:17;;;;;;;;;;;20.60;83.80;;;;;;1998387;28;20400;-73
2022/08/02 05:04:15;;;;;;;;;;;20.60;83.80;;;;;;1997975;28;19987;-73
2022/08/02 05:05:14;;;;;;;;;;;20.60;83.80;;;;;;1997982;28;19952;-73
2022/08/02 05:06:13;;;;;;;;;;;20.60;83.70;;;;;;1997955;28;19944;-73
2022/08/02 05:07:13;;;;;;;;;;;20.60;84.40;;;;;;1997883;28;19905;-73
2022/08/02 05:08:11;;;;;;;;;;;20.60;83.70;;;;;;1997829;28;19906;-73
2022/08/02 05:09:10;;;;;;;;;;;20.60;83.70;;;;;;1997838;28;19937;-73
2022/08/02 05:10:08;;;;;;;;;;;20.60;83.70;;;;;;1997836;28;19992;-72
2022/08/02 05:11:07;;;;;;;;;;;20.60;83.80;;;;;;1997689;28;19909;-72
2022/08/02 05:12:05;;;;;;;;;;;20.60;83.80;;;;;;1997740;28;20364;-73
2022/08/02 05:13:04;;;;;;;;;;;20.60;83.70;;;;;;1997800;28;19960;-73
2022/08/02 05:14:04;;;;;;;;;;;20.60;83.60;;;;;;2004943;28;19998;-73
2022/08/02 05:15:02;;;;;;;;;;;20.60;83.80;;;;;;1997002;28;20308;-73
2022/08/02 05:16:03;;;;;;;;;;;20.60;83.70;;;;;;1989628;28;20050;-74
2022/08/02 05:17:01;;;;;;;;;;;20.60;83.70;;;;;;1997211;28;19905;-74
2022/08/02 05:18:00;;;;;;;;;;;20.60;83.80;;;;;;1997720;28;19952;-74
2022/08/02 05:18:59;;;;;;;;;;;20.60;83.80;;;;;;1997697;28;20015;-73
2022/08/02 05:19:57;;;;;;;;;;;20.60;83.70;;;;;;1997625;28;19967;-72
2022/08/02 05:20:57;;;;;;;;;;;20.60;83.80;;;;;;1997572;28;19949;-73
2022/08/02 05:21:56;;;;;;;;;;;20.60;84.00;;;;;;1989256;28;20416;-73
2022/08/02 05:22:54;;;;;;;;;;;20.60;83.90;;;;;;1996730;28;19905;-73
2022/08/02 05:23:52;;;;;;;;;;;20.60;84.10;;;;;;1996734;28;20009;-73
2022/08/02 05:24:51;;;;;;;;;;;20.60;84.10;;;;;;1989758;28;19923;-73
2022/08/02 05:25:49;;;;;;;;;;;20.60;84.40;;;;;;1996675;28;20000;-72
2022/08/02 05:26:49;;;;;;;;;;;20.60;84.90;;;;;;1997775;28;20337;-73
2022/08/02 05:27:48;;;;;;;;;;;20.60;84.20;;;;;;1997632;28;19913;-73
2022/08/02 05:28:47;;;;;;;;;;;20.60;84.20;;;;;;2004871;28;19905;-73
2022/08/02 05:29:45;;;;;;;;;;;20.60;84.40;;;;;;2004803;28;19905;-73
2022/08/02 05:30:44;;;;;;;;;;;20.60;84.30;;;;;;1989472;28;20013;-73
2022/08/02 05:31:44;;;;;;;;;;;20.60;84.30;;;;;;1989318;28;19914;-72
2022/08/02 05:32:49;;;;;;;;;;;20.60;84.40;;;;;;1997466;28;19910;-73
2022/08/02 05:33:48;;;;;;;;;;;20.60;84.30;;;;;;1997627;28;19905;-73
2022/08/02 05:34:46;;;;;;;;;;;20.60;84.20;;;;;;1997654;28;19941;-73
2022/08/02 05:35:45;;;;;;;;;;;20.60;84.30;;;;;;1997630;28;19987;-74
2022/08/02 05:36:43;;;;;;;;;;;20.60;84.40;;;;;;1997651;28;19910;-73
2022/08/02 05:37:43;;;;;;;;;;;20.60;84.30;;;;;;2004866;28;20391;-73
2022/08/02 05:38:42;;;;;;;;;;;20.60;84.20;;;;;;2004901;28;19905;-72
2022/08/02 05:39:40;;;;;;;;;;;20.60;84.50;;;;;;1997851;28;19917;-73
2022/08/02 05:40:39;;;;;;;;;;;20.60;84.60;;;;;;1997457;28;19913;-73
2022/08/02 05:41:37;;;;;;;;;;;20.60;84.50;;;;;;1997588;28;20269;-73
2022/08/02 05:42:36;;;;;;;;;;;20.60;84.70;;;;;;1997497;28;19928;-73
2022/08/02 05:43:34;;;;;;;;;;;20.60;84.90;;;;;;2004787;28;19910;-72
2022/08/02 05:44:33;;;;;;;;;;;20.60;84.90;;;;;;2004133;28;19943;-73
2022/08/02 05:45:35;;;;;;;;;;;20.60;85.00;;;;;;1997944;28;20277;-74
2022/08/02 05:46:33;;;;;;;;;;;20.60;84.90;;;;;;2004574;28;19932;-73
2022/08/02 05:47:32;;;;;;;;;;;20.60;84.80;;;;;;2004909;28;19906;-71
2022/08/02 05:48:31;;;;;;;;;;;20.60;84.90;;;;;;1998037;28;19944;-72
2022/08/02 05:49:29;;;;;;;;;;;20.60;84.80;;;;;;1997464;28;20412;-72
2022/08/02 05:50:28;;;;;;;;;;;20.60;84.90;;;;;;1997481;28;19906;-72
2022/08/02 05:51:38;;;;;;;;;;;20.60;85.00;;;;;;1997676;28;19906;-74